Time;durP1;ratioP1;P1;durP2;ratioP2;P2;SDS_P1;SDS_P2;PMS_P1;PMS_P2;Temp;Humidity;BMP_temperature;BMP_pressure;BME280_temperature;BME280_humidity;BME280_pressure;Samples;Min_cycle;Max_cycle;Signal;HPM_P1;HPM_P2
2023/11/24 00:00:09;;;;;;;14.68;11.20;;;;;;;20.05;100.00;101285.38;143711;596;46010;-73
2023/11/24 00:02:36;;;;;;;14.25;11.70;;;;;;;20.01;100.00;101269.78;143715;689;46006;-72
2023/11/24 00:05:06;;;;;;;12.77;11.45;;;;;;;19.95;100.00;101274.28;143715;572;47004;-71
2023/11/24 00:07:32;;;;;;;14.70;10.90;;;;;;;19.92;100.00;101272.09;143712;584;46011;-72
2023/11/24 00:09:58;;;;;;;17.08;12.60;;;;;;;19.92;100.00;101269.38;143708;575;47004;-72
2023/11/24 00:12:25;;;;;;;19.58;11.00;;;;;;;19.89;100.00;101267.94;143711;584;46917;-71
2023/11/24 00:14:51;;;;;;;13.18;10.70;;;;;;;19.94;100.00;101269.94;143708;812;47002;-71
2023/11/24 00:17:19;;;;;;;16.20;13.02;;;;;;;19.89;100.00;101270.66;143707;568;47004;-72
2023/11/24 00:19:45;;;;;;;21.58;16.48;;;;;;;19.82;100.00;101273.53;143708;804;47004;-72
2023/11/24 00:22:11;;;;;;;24.60;18.83;;;;;;;19.75;100.00;101263.84;143710;973;47007;-71
2023/11/24 00:24:38;;;;;;;24.70;20.27;;;;;;;19.76;100.00;101270.97;143713;578;47008;-72
2023/11/24 00:27:05;;;;;;;26.02;20.98;;;;;;;19.74;100.00;101264.94;143709;596;48915;-72
2023/11/24 00:29:32;;;;;;;26.40;20.42;;;;;;;19.76;100.00;101255.47;143712;872;47002;-71
2023/11/24 00:31:58;;;;;;;25.02;20.42;;;;;;;19.84;100.00;101252.31;143715;593;47002;-71
2023/11/24 00:34:24;;;;;;;27.52;20.10;;;;;;;19.87;100.00;101258.34;143711;663;47002;-71
2023/11/24 00:36:51;;;;;;;23.98;19.20;;;;;;;19.80;100.00;101255.78;143710;601;48002;-72
2023/11/24 00:39:19;;;;;;;24.83;18.90;;;;;;;19.80;100.00;101253.87;143708;775;48006;-72
2023/11/24 00:41:45;;;;;;;20.98;18.40;;;;;;;19.76;100.00;101255.47;143709;586;47928;-71
2023/11/24 00:44:12;;;;;;;28.40;20.05;;;;;;;19.71;100.00;101249.91;143715;840;46004;-72
2023/11/24 00:46:38;;;;;;;21.12;16.58;;;;;;;19.68;100.00;101236.78;143708;653;47010;-72
2023/11/24 00:49:04;;;;;;;23.58;16.92;;;;;;;19.68;100.00;101240.31;143713;795;47002;-72
2023/11/24 00:51:31;;;;;;;25.50;17.95;;;;;;;19.63;100.00;101240.25;143711;948;47000;-72
2023/11/24 00:53:57;;;;;;;19.83;15.63;;;;;;;19.56;100.00;101234.13;143714;927;46004;-71
2023/11/24 00:56:24;;;;;;;23.25;17.35;;;;;;;19.50;100.00;101230.47;143709;592;47010;-72
2023/11/24 00:58:51;;;;;;;24.35;19.20;;;;;;;19.45;100.00;101233.13;143716;977;46006;-71
2023/11/24 01:01:18;;;;;;;23.95;17.40;;;;;;;19.45;100.00;101221.41;143705;974;47006;-71
2023/11/24 01:03:45;;;;;;;18.62;15.48;;;;;;;19.50;100.00;101226.94;143715;986;46006;-72
2023/11/24 01:06:12;;;;;;;17.48;14.23;;;;;;;19.46;100.00;101233.94;143706;723;47002;-71
2023/11/24 01:08:39;;;;;;;16.98;13.62;;;;;;;19.41;100.00;101229.25;143708;973;47004;-72
2023/11/24 01:11:06;;;;;;;17.52;12.82;;;;;;;19.43;100.00;101232.53;143711;580;47006;-71
2023/11/24 01:13:35;;;;;;;15.65;13.32;;;;;;;19.44;100.00;101225.19;143715;590;46008;-71
2023/11/24 01:16:02;;;;;;;15.02;12.75;;;;;;;19.45;100.00;101221.41;143709;803;47008;-71
2023/11/24 01:18:29;;;;;;;13.73;11.88;;;;;;;19.35;100.00;101214.69;143711;616;47008;-72
2023/11/24 01:20:55;;;;;;;17.23;13.23;;;;;;;19.37;100.00;101207.09;143710;972;46917;-71
2023/11/24 01:23:21;;;;;;;19.23;15.10;;;;;;;19.36;100.00;101199.19;143713;681;47004;-71
2023/11/24 01:25:48;;;;;;;18.37;13.80;;;;;;;19.27;100.00;101192.47;143714;973;46010;-71
2023/11/24 01:28:14;;;;;;;18.15;14.63;;;;;;;19.23;100.00;101189.44;143712;980;46005;-71
2023/11/24 01:30:41;;;;;;;17.85;13.80;;;;;;;19.16;100.00;101186.88;143709;950;48006;-71
2023/11/24 01:33:07;;;;;;;20.90;15.27;;;;;;;19.15;100.00;101176.22;143711;567;47002;-71
2023/11/24 01:35:34;;;;;;;22.10;15.18;;;;;;;19.11;100.00;101169.63;143707;598;47008;-71
2023/11/24 01:38:00;;;;;;;17.98;13.40;;;;;;;19.03;100.00;101173.56;143712;870;47011;-72
2023/11/24 01:40:26;;;;;;;15.23;13.32;;;;;;;18.96;100.00;101164.72;143710;596;47006;-72
2023/11/24 01:42:53;;;;;;;18.00;15.18;;;;;;;18.88;100.00;101160.44;143712;986;47002;-72
2023/11/24 01:45:19;;;;;;;20.65;16.25;;;;;;;18.80;100.00;101161.66;143709;972;47011;-72
2023/11/24 01:47:47;;;;;;;18.90;15.98;;;;;;;18.78;100.00;101156.47;143713;822;46008;-72
2023/11/24 01:50:16;;;;;;;23.17;17.27;;;;;;;18.72;100.00;101145.72;143712;591;46020;-72
2023/11/24 01:52:43;;;;;;;23.55;18.73;;;;;;;18.68;100.00;101139.13;143712;583;47002;-73
2023/11/24 01:55:13;;;;;;;25.27;19.62;;;;;;;18.62;100.00;101132.78;143709;569;47008;-73
2023/11/24 01:57:41;;;;;;;23.02;17.58;;;;;;;18.50;100.00;101127.38;143709;597;47004;-73
2023/11/24 02:00:13;;;;;;;23.12;17.52;;;;;;;18.42;100.00;101122.28;143711;883;47006;-73
2023/11/24 04:03:08;;;;;;;18.05;11.65;;;;;;;18.35;100.00;101000.06;143720;582;47004;-74
2023/11/24 04:05:34;;;;;;;15.77;11.05;;;;;;;18.36;100.00;100998.16;143716;601;47009;-72
2023/11/24 04:08:01;;;;;;;14.25;10.65;;;;;;;18.33;100.00;100994.88;143716;567;47004;-71
2023/11/24 04:10:28;;;;;;;15.73;12.98;;;;;;;18.27;100.00;100995.00;143718;721;46006;-71
2023/11/24 04:12:54;;;;;;;19.62;14.40;;;;;;;18.26;100.00;100985.22;143717;848;47004;-71
2023/11/24 04:15:20;;;;;;;19.17;14.50;;;;;;;18.36;100.00;100984.56;143716;578;47006;-72
2023/11/24 04:17:47;;;;;;;18.25;14.57;;;;;;;18.40;100.00;100989.28;143714;978;47004;-71
2023/11/24 04:20:13;;;;;;;19.80;13.23;;;;;;;18.38;100.00;100993.31;143714;986;47007;-72
2023/11/24 04:22:39;;;;;;;14.63;12.18;;;;;;;18.33;100.00;100997.59;143714;573;47002;-72
2023/11/24 04:25:08;;;;;;;24.73;12.27;;;;;;;18.29;100.00;100982.84;143717;569;46923;-72
2023/11/24 04:27:34;;;;;;;19.33;12.07;;;;;;;18.27;100.00;100984.97;143713;596;47005;-71
2023/11/24 04:30:01;;;;;;;13.10;11.70;;;;;;;18.27;100.00;100982.25;143713;785;47002;-71
2023/11/24 04:32:27;;;;;;;17.60;11.43;;;;;;;18.29;100.00;100974.69;143718;579;47002;-72
2023/11/24 04:34:53;;;;;;;20.55;12.48;;;;;;;18.38;100.00;100974.28;143717;586;47005;-72
2023/11/24 04:37:19;;;;;;;13.95;12.52;;;;;;;18.44;100.00;100965.13;143712;726;47008;-72
2023/11/24 04:39:46;;;;;;;18.00;13.98;;;;;;;18.41;100.00;100965.63;143715;580;47006;-72
2023/11/24 04:42:12;;;;;;;14.75;12.55;;;;;;;18.41;100.00;100971.91;143715;643;47003;-72
2023/11/24 04:44:38;;;;;;;17.48;12.10;;;;;;;18.41;100.00;100971.91;143716;621;47004;-72
2023/11/24 04:47:05;;;;;;;17.55;12.02;;;;;;;18.33;100.00;100970.41;143717;980;47004;-72
2023/11/24 04:49:31;;;;;;;20.25;12.13;;;;;;;18.25;100.00;100964.53;143713;577;47006;-71
2023/11/24 04:51:59;;;;;;;15.23;10.93;;;;;;;18.20;100.00;100969.88;143714;576;47004;-71
2023/11/24 04:54:25;;;;;;;16.83;11.63;;;;;;;18.19;100.00;100966.31;143714;590;48010;-72
2023/11/24 04:56:54;;;;;;;19.20;13.13;;;;;;;18.22;100.00;100967.75;143716;839;47004;-72
2023/11/24 04:59:21;;;;;;;21.58;13.98;;;;;;;18.26;100.00;100964.28;143714;590;47917;-72
2023/11/24 05:01:47;;;;;;;25.98;13.40;;;;;;;18.19;100.00;100963.59;143714;592;47002;-72
2023/11/24 05:04:14;;;;;;;21.70;13.73;;;;;;;18.23;100.00;100962.06;143709;985;47010;-72
2023/11/24 05:06:41;;;;;;;16.35;12.43;;;;;;;18.23;100.00;100955.81;143709;788;47004;-72
2023/11/24 05:09:07;;;;;;;17.42;11.55;;;;;;;18.27;100.00;100955.06;143707;755;47006;-72
2023/11/24 05:11:34;;;;;;;18.30;12.55;;;;;;;18.30;100.00;100961.91;143708;984;47004;-72
2023/11/24 05:14:01;;;;;;;16.95;11.65;;;;;;;18.37;100.00;100961.75;143709;676;47004;-72
2023/11/24 05:16:27;;;;;;;19.62;11.77;;;;;;;18.32;100.00;100959.75;143708;662;47004;-72
2023/11/24 05:18:54;;;;;;;16.87;12.07;;;;;;;18.35;100.00;100950.31;143706;567;47021;-72
2023/11/24 05:21:20;;;;;;;20.52;10.90;;;;;;;18.36;100.00;100949.22;143708;567;47004;-71
2023/11/24 05:23:46;;;;;;;16.05;12.90;;;;;;;18.37;100.00;100945.41;143709;566;47008;-71
2023/11/24 05:26:13;;;;;;;17.42;11.65;;;;;;;18.37;100.00;100940.81;143705;575;47004;-72
2023/11/24 05:28:39;;;;;;;15.27;12.60;;;;;;;18.41;100.00;100930.28;143706;567;47006;-72
2023/11/24 05:31:06;;;;;;;21.10;13.05;;;;;;;18.44;100.00;100935.22;143711;602;46007;-72
2023/11/24 05:33:33;;;;;;;17.45;12.95;;;;;;;18.58;100.00;100922.13;143708;616;47010;-71
2023/11/24 05:35:59;;;;;;;18.25;13.10;;;;;;;18.56;100.00;100932.44;143708;979;47004;-72
2023/11/24 05:38:25;;;;;;;17.40;11.38;;;;;;;18.56;100.00;100929.72;143703;566;47006;-72
2023/11/24 05:40:51;;;;;;;20.25;10.80;;;;;;;18.51;100.00;100935.06;143708;573;47004;-72
2023/11/24 05:43:18;;;;;;;19.05;12.10;;;;;;;18.51;100.00;100933.19;143707;601;47010;-71
2023/11/24 05:45:47;;;;;;;18.85;10.70;;;;;;;18.54;100.00;100926.41;143708;867;47004;-72
2023/11/24 05:48:13;;;;;;;16.02;10.07;;;;;;;18.55;100.00;100915.28;143708;920;47007;-72
2023/11/24 05:50:39;;;;;;;13.30;10.25;;;;;;;18.58;100.00;100920.22;143708;581;47002;-72
2023/11/24 05:53:06;;;;;;;13.57;10.20;;;;;;;18.67;100.00;100926.06;143708;700;47012;-72
2023/11/24 05:55:32;;;;;;;19.05;9.52;;;;;;;18.68;100.00;100924.19;143711;842;47010;-71
2023/11/24 05:57:59;;;;;;;18.15;10.65;;;;;;;18.74;100.00;100918.59;143706;573;47008;-72
2023/11/24 06:00:26;;;;;;;16.25;10.20;;;;;;;18.82;100.00;100921.94;143709;580;47004;-71
2023/11/24 06:02:52;;;;;;;23.95;11.12;;;;;;;18.85;100.00;100926.88;143702;754;49006;-72
2023/11/24 06:05:18;;;;;;;15.77;11.63;;;;;;;18.89;100.00;100928.84;143708;698;47006;-72
2023/11/24 06:07:45;;;;;;;21.20;13.20;;;;;;;18.87;100.00;100930.19;143707;977;47008;-72
2023/11/24 06:10:11;;;;;;;18.00;12.50;;;;;;;18.86;100.00;100923.94;143708;975;46009;-71
2023/11/24 06:12:37;;;;;;;25.12;11.93;;;;;;;18.97;100.00;100916.78;143707;567;47010;-72
2023/11/24 06:15:04;;;;;;;20.80;14.13;;;;;;;18.98;100.00;100920.31;143707;976;47006;-72
2023/11/24 06:17:31;;;;;;;27.50;15.98;;;;;;;19.01;100.00;100919.81;143705;985;47009;-71
2023/11/24 06:19:57;;;;;;;27.17;16.10;;;;;;;19.02;100.00;100926.91;143709;596;47004;-72
2023/11/24 06:22:23;;;;;;;18.75;14.35;;;;;;;19.01;100.00;100923.34;143704;569;47012;-72
2023/11/24 06:24:49;;;;;;;17.52;14.07;;;;;;;19.10;100.00;100915.56;143709;573;47011;-71
2023/11/24 06:27:16;;;;;;;19.02;15.15;;;;;;;19.12;100.00;100913.44;143703;581;47008;-72
2023/11/24 06:29:42;;;;;;;21.83;14.55;;;;;;;19.13;100.00;100915.09;143709;642;47011;-71
2023/11/24 06:32:11;;;;;;;17.83;14.18;;;;;;;19.14;100.00;100921.37;143709;720;47012;-72
2023/11/24 06:34:38;;;;;;;29.20;16.65;;;;;;;19.16;100.00;100913.75;143707;888;47012;-72
2023/11/24 06:37:04;;;;;;;20.58;16.58;;;;;;;19.19;100.00;100916.81;143709;568;47008;-72
2023/11/24 06:39:31;;;;;;;24.05;17.12;;;;;;;19.23;100.00;100920.69;143708;604;47008;-72
2023/11/24 06:41:57;;;;;;;27.45;16.77;;;;;;;19.33;100.00;100922.69;143703;833;47010;-73
2023/11/24 06:44:26;;;;;;;24.77;17.90;;;;;;;19.39;100.00;100920.88;143707;573;47006;-72
2023/11/24 06:46:52;;;;;;;26.33;17.87;;;;;;;19.45;100.00;100914.41;143703;985;47008;-71
2023/11/24 06:49:19;;;;;;;22.52;17.08;;;;;;;19.53;100.00;100908.53;143711;969;47002;-70
2023/11/24 06:51:48;;;;;;;21.08;16.33;;;;;;;19.57;100.00;100911.56;143707;569;47012;-69
2023/11/24 06:54:15;;;;;;;19.70;14.55;;;;;;;19.57;100.00;100914.28;143709;573;47012;-72
2023/11/24 06:56:41;;;;;;;20.58;14.13;;;;;;;19.62;100.00;100911.63;143706;983;47007;-71
2023/11/24 06:59:08;;;;;;;25.88;15.98;;;;;;;19.66;100.00;100901.03;143710;567;47002;-71
2023/11/24 07:01:35;;;;;;;23.67;13.30;;;;;;;19.69;100.00;100908.69;143709;837;47008;-71
2023/11/24 07:04:02;;;;;;;13.07;11.30;;;;;;;19.83;100.00;100904.50;143708;973;47004;-72
2023/11/24 07:06:29;;;;;;;15.73;11.35;;;;;;;19.82;100.00;100904.75;143706;980;47006;-72
2023/11/24 07:08:56;;;;;;;20.35;14.85;;;;;;;19.83;100.00;100900.94;143706;595;47010;-72
2023/11/24 07:11:23;;;;;;;24.05;16.48;;;;;;;19.90;100.00;100908.94;143709;590;47010;-73
2023/11/24 07:13:49;;;;;;;25.50;16.80;;;;;;;19.94;100.00;100899.19;143707;974;47006;-71
2023/11/24 07:16:16;;;;;;;23.00;15.18;;;;;;;19.96;100.00;100903.28;143708;572;47008;-72
2023/11/24 07:18:42;;;;;;;24.20;15.68;;;;;;;19.98;100.00;100911.19;143709;573;47004;-71
2023/11/24 07:21:08;;;;;;;18.23;14.20;;;;;;;20.07;100.00;100912.41;143707;679;47012;-71
2023/11/24 07:23:37;;;;;;;22.77;15.40;;;;;;;20.11;100.00;100901.78;143709;605;47006;-71
2023/11/24 07:26:07;;;;;;;24.77;15.60;;;;;;;20.28;100.00;100896.22;143707;742;47009;-72
2023/11/24 07:28:39;;;;;;;21.02;15.00;;;;;;;20.44;100.00;100892.53;143709;586;47004;-72
2023/11/24 07:31:05;;;;;;;20.75;15.23;;;;;;;20.63;100.00;100883.94;143708;933;47006;-72
2023/11/24 07:33:32;;;;;;;23.55;16.15;;;;;;;20.71;100.00;100869.00;143707;956;47007;-72
2023/11/24 07:35:59;;;;;;;20.52;16.35;;;;;;;20.81;100.00;100871.81;143706;567;47008;-71
2023/11/24 07:38:25;;;;;;;23.62;18.77;;;;;;;20.92;100.00;100858.19;143709;578;47006;-71
2023/11/24 07:40:52;;;;;;;32.20;20.77;;;;;;;21.00;100.00;100846.78;143707;963;47010;-71
2023/11/24 07:43:18;;;;;;;20.60;17.30;;;;;;;21.01;100.00;100851.97;143707;773;49006;-71
2023/11/24 07:45:48;;;;;;;24.37;17.62;;;;;;;21.12;100.00;100846.56;143709;566;47004;-71
2023/11/24 07:48:15;;;;;;;24.12;17.73;;;;;;;21.15;100.00;100846.84;143711;585;47004;-72
2023/11/24 07:50:42;;;;;;;21.35;17.17;;;;;;;21.16;100.00;100850.44;143706;599;47010;-71
2023/11/24 07:53:13;;;;;;;27.65;16.95;;;;;;;21.27;100.00;100848.56;143711;972;47006;-71
2023/11/24 07:55:40;;;;;;;21.17;15.80;;;;;;;21.46;100.00;100862.53;143709;692;47009;-71
2023/11/24 07:58:07;;;;;;;26.08;17.33;;;;;;;21.51;100.00;100846.97;143709;572;47004;-72
2023/11/24 08:00:34;;;;;;;20.42;16.17;;;;;;;21.63;100.00;100843.19;143705;588;47010;-72
2023/11/24 08:03:03;;;;;;;23.17;15.98;;;;;;;21.79;100.00;100838.59;143706;593;47007;-72
2023/11/24 08:05:30;;;;;;;27.40;16.17;;;;;;;21.93;100.00;100849.81;143705;568;47008;-72
2023/11/24 08:07:57;;;;;;;23.58;15.40;;;;;;;22.01;100.00;100846.53;143709;592;47004;-71
2023/11/24 08:10:23;;;;;;;24.12;16.37;;;;;;;22.18;100.00;100831.75;143704;587;47012;-71
2023/11/24 08:12:50;;;;;;;14.55;12.52;;;;;;;22.25;100.00;100832.31;143708;567;47006;-71
2023/11/24 08:15:16;;;;;;;17.02;13.00;;;;;;;22.35;100.00;100837.78;143708;624;47008;-71
2023/11/24 08:17:43;;;;;;;17.58;12.82;;;;;;;22.57;100.00;100833.94;143709;573;48002;-71
2023/11/24 08:20:10;;;;;;;17.12;11.23;;;;;;;22.76;100.00;100819.66;143702;597;47918;-71
2023/11/24 08:22:37;;;;;;;12.37;9.25;;;;;;;22.90;100.00;100822.66;143709;590;47006;-71
2023/11/24 08:25:06;;;;;;;11.18;8.48;;;;;;;23.06;100.00;100824.22;143706;604;47008;-72
2023/11/24 08:27:32;;;;;;;14.60;8.82;;;;;;;23.16;100.00;100815.12;143707;590;47004;-71
2023/11/24 08:30:02;;;;;;;11.38;7.28;;;;;;;23.32;100.00;100815.91;143707;586;47010;-71
2023/11/24 08:32:28;;;;;;;9.85;8.25;;;;;;;23.58;100.00;100813.81;143708;579;47006;-71
2023/11/24 08:34:54;;;;;;;17.33;8.02;;;;;;;23.76;100.00;100809.59;143707;575;47008;-72
2023/11/24 08:37:20;;;;;;;14.55;7.43;;;;;;;24.06;100.00;100804.19;143708;596;47004;-72
2023/11/24 08:39:47;;;;;;;9.10;6.57;;;;;;;24.41;100.00;100807.72;143709;602;47011;-71
2023/11/24 08:42:13;;;;;;;8.48;7.07;;;;;;;25.37;100.00;100800.50;143709;572;47006;-72
2023/11/24 08:44:40;;;;;;;9.38;5.20;;;;;;;26.09;100.00;100797.78;143709;572;47008;-69
2023/11/24 08:47:06;;;;;;;7.12;4.70;;;;;;;25.60;100.00;100791.69;143711;574;47004;-71
2023/11/24 08:49:32;;;;;;;7.18;5.10;;;;;;;25.84;100.00;100784.16;143708;574;47010;-69
2023/11/24 08:51:59;;;;;;;8.52;5.47;;;;;;;25.92;100.00;100788.16;143710;633;47006;-72
2023/11/24 08:54:25;;;;;;;6.72;5.05;;;;;;;28.73;97.29;100778.88;143709;570;46009;-72
2023/11/24 08:56:51;;;;;;;6.68;5.35;;;;;;;33.05;73.91;100767.72;143709;609;47006;-71
2023/11/24 08:59:18;;;;;;;6.60;4.28;;;;;;;35.37;60.14;100762.41;143707;702;47012;-72
2023/11/24 09:01:49;;;;;;;11.70;4.93;;;;;;;37.17;51.75;100747.81;143712;573;47006;-72
2023/11/24 09:04:15;;;;;;;8.30;4.85;;;;;;;38.35;47.58;100741.00;143710;589;47008;-72
2023/11/24 09:06:41;;;;;;;7.22;4.97;;;;;;;39.21;44.35;100736.25;143710;604;47006;-72
2023/11/24 09:09:12;;;;;;;6.85;4.32;;;;;;;39.60;42.34;100727.16;143710;631;47012;-72
2023/11/24 09:11:38;;;;;;;6.05;4.85;;;;;;;40.24;41.07;100713.53;143710;579;47006;-72
2023/11/24 09:14:05;;;;;;;8.10;4.90;;;;;;;40.91;39.11;100713.78;143709;567;47008;-72
2023/11/24 09:16:32;;;;;;;9.27;5.40;;;;;;;41.39;38.76;100705.91;143711;610;47013;-72
2023/11/24 09:18:59;;;;;;;10.68;5.82;;;;;;;42.00;37.63;100707.47;143709;693;47920;-73
2023/11/24 09:21:26;;;;;;;6.72;5.40;;;;;;;40.82;37.77;100707.78;143708;575;47010;-71
2023/11/24 09:23:53;;;;;;;8.35;5.65;;;;;;;37.02;41.49;100720.84;143710;568;47009;-72
2023/11/24 09:26:19;;;;;;;6.60;5.32;;;;;;;34.35;46.57;100725.06;143709;575;47004;-72
2023/11/24 09:28:46;;;;;;;7.07;4.78;;;;;;;32.93;49.49;100723.25;143708;648;47012;-72
2023/11/24 09:31:12;;;;;;;8.20;4.07;;;;;;;32.26;50.56;100715.97;143708;573;47006;-72
2023/11/24 09:33:39;;;;;;;6.20;4.75;;;;;;;31.68;53.07;100710.41;143704;635;47008;-72
2023/11/24 09:36:07;;;;;;;4.75;3.85;;;;;;;33.96;50.15;100695.88;143710;616;47006;-72
2023/11/24 09:38:35;;;;;;;7.07;4.80;;;;;;;37.60;45.72;100688.66;143710;602;47006;-72
2023/11/24 09:41:08;;;;;;;7.65;5.28;;;;;;;39.89;41.46;100678.59;143709;608;47006;-73
2023/11/24 09:43:38;;;;;;;10.93;5.27;;;;;;;41.74;38.67;100670.22;143707;629;47008;-72
2023/11/24 09:46:09;;;;;;;10.35;5.07;;;;;;;42.06;36.93;100664.28;143709;599;47006;-72
2023/11/24 09:48:39;;;;;;;10.85;5.20;;;;;;;42.47;36.48;100654.19;143709;572;47013;-72
2023/11/24 09:51:08;;;;;;;8.57;5.70;;;;;;;43.39;34.65;100652.56;143709;579;46579;-72
2023/11/24 09:53:34;;;;;;;9.77;5.32;;;;;;;43.30;34.22;100636.13;143708;592;47008;-72
2023/11/24 09:56:05;;;;;;;7.12;5.28;;;;;;;43.58;33.44;100624.78;143709;626;47006;-73
2023/11/24 09:58:32;;;;;;;7.53;5.20;;;;;;;43.20;33.14;100620.13;143702;583;47010;-71
2023/11/24 10:01:27;;;;;;;9.38;5.45;;;;;;;43.13;33.93;100609.75;143705;596;47006;-72
2023/11/24 10:03:55;;;;;;;8.95;5.40;;;;;;;43.02;33.87;100589.31;143721;629;47004;-72
2023/11/24 10:06:22;;;;;;;13.43;6.87;;;;;;;41.85;34.78;100586.31;143722;619;47004;-72
2023/11/24 10:08:49;;;;;;;8.45;5.22;;;;;;;41.14;36.03;100586.50;143711;610;47011;-72
2023/11/24 10:11:27;;;;;;;8.32;5.05;;;;;;;40.21;36.10;100587.75;143715;580;47006;-73
2023/11/24 10:13:57;;;;;;;11.52;4.97;;;;;;;38.59;37.38;100580.81;143720;644;47008;-72
2023/11/24 10:16:24;;;;;;;9.90;5.32;;;;;;;36.22;40.23;100577.06;143719;579;47005;-72
2023/11/24 10:18:51;;;;;;;10.40;5.15;;;;;;;34.05;42.24;100559.13;143720;638;47006;-73
2023/11/24 10:21:18;;;;;;;7.05;5.12;;;;;;;32.88;45.90;100557.41;143713;579;47004;-72
2023/11/24 10:23:44;;;;;;;6.47;4.45;;;;;;;32.36;47.20;100559.06;143715;623;47007;-73
2023/11/24 10:26:15;;;;;;;6.93;4.65;;;;;;;31.49;48.38;100547.19;143721;742;47004;-72
2023/11/24 10:28:45;;;;;;;5.68;4.62;;;;;;;30.56;51.74;100540.75;143716;637;47008;-72
2023/11/24 10:31:13;;;;;;;6.45;4.65;;;;;;;29.86;53.97;100546.75;143719;592;47005;-72
2023/11/24 10:33:40;;;;;;;6.82;4.68;;;;;;;28.88;55.36;100548.19;143718;642;47004;-73
2023/11/24 10:36:08;;;;;;;9.60;4.37;;;;;;;28.18;58.66;100539.88;143716;574;47002;-72
2023/11/24 10:38:38;;;;;;;10.13;4.70;;;;;;;27.51;60.92;100537.09;143717;603;47010;-72
2023/11/24 10:41:07;;;;;;;8.93;4.43;;;;;;;27.01;65.23;100527.06;143718;683;47004;-72
2023/11/24 10:43:38;;;;;;;8.32;4.30;;;;;;;26.74;67.25;100521.34;143718;683;47006;-72
2023/11/24 10:46:11;;;;;;;7.40;5.12;;;;;;;26.33;71.12;100516.81;143724;600;47004;-72
2023/11/24 10:48:47;;;;;;;5.60;4.25;;;;;;;25.99;73.68;100520.81;143719;581;47010;-72
2023/11/24 10:51:53;;;;;;;7.50;5.53;;;;;;;25.80;77.56;100518.19;143720;599;47004;-72
2023/11/24 10:54:45;;;;;;;7.35;5.35;;;;;;;25.60;82.03;100519.41;143723;652;47006;-72
2023/11/24 10:57:12;;;;;;;8.70;5.37;;;;;;;25.97;82.83;100512.88;143721;585;47002;-71
2023/11/24 10:59:41;;;;;;;7.28;4.43;;;;;;;26.09;83.96;100506.03;143720;580;48006;-71
2023/11/24 11:02:10;;;;;;;9.27;4.70;;;;;;;26.12;84.62;100502.69;143709;567;47006;-72
2023/11/24 11:04:39;;;;;;;6.70;4.75;;;;;;;26.22;84.74;100491.44;143704;595;47006;-72
2023/11/24 11:07:27;;;;;;;7.50;4.68;;;;;;;26.26;85.85;100491.66;143707;595;47004;-73
2023/11/24 11:10:02;;;;;;;8.85;4.65;;;;;;;26.17;86.84;100486.88;143707;666;47008;-72
2023/11/24 11:12:55;;;;;;;6.53;4.97;;;;;;;26.82;85.40;100477.69;143705;658;47004;-72
2023/11/24 11:15:25;;;;;;;5.75;4.05;;;;;;;27.39;82.82;100463.97;143705;590;47006;-73
2023/11/24 11:18:13;;;;;;;7.90;4.82;;;;;;;27.28;82.26;100462.66;143707;579;47002;-73
2023/11/24 11:20:44;;;;;;;8.55;5.40;;;;;;;26.65;83.11;100454.37;143702;572;47916;-71
2023/11/24 11:23:17;;;;;;;8.27;5.18;;;;;;;26.84;83.36;100454.19;143706;650;47005;-72
2023/11/24 11:25:50;;;;;;;6.75;4.75;;;;;;;26.80;82.42;100450.44;143706;590;46010;-72
2023/11/24 11:28:42;;;;;;;7.47;4.67;;;;;;;26.73;81.35;100441.78;143706;654;47002;-72
2023/11/24 11:31:27;;;;;;;8.18;4.55;;;;;;;26.83;82.58;100437.97;143702;603;47010;-71
2023/11/24 11:33:54;;;;;;;6.57;4.70;;;;;;;27.06;82.26;100434.03;143707;655;47004;-71
2023/11/24 11:36:25;;;;;;;10.80;4.90;;;;;;;26.71;83.14;100436.56;143703;626;47006;-72
2023/11/24 11:38:53;;;;;;;6.82;4.72;;;;;;;26.42;85.86;100435.09;143707;602;47004;-71
2023/11/24 11:41:44;;;;;;;7.05;4.40;;;;;;;25.80;87.33;100441.19;143703;581;47010;-71
2023/11/24 11:47:29;;;;;;;14.27;4.75;;;;;;;26.07;89.30;100429.28;143705;575;47004;-72
2023/11/24 11:49:56;;;;;;;5.47;4.30;;;;;;;25.75;89.61;100424.78;143705;617;47004;-71
2023/11/24 11:52:25;;;;;;;8.02;4.40;;;;;;;25.15;92.31;100424.59;143704;623;47008;-71
2023/11/24 11:54:53;;;;;;;12.60;4.40;;;;;;;24.83;94.51;100429.03;143706;569;47004;-71
2023/11/24 11:57:23;;;;;;;4.75;4.10;;;;;;;24.83;96.28;100418.03;143706;573;47006;-72
2023/11/24 11:59:50;;;;;;;6.55;4.53;;;;;;;24.81;96.89;100412.81;143708;572;47004;-72
2023/11/24 12:02:20;;;;;;;5.10;4.43;;;;;;;24.55;98.31;100417.94;143702;623;48008;-71
2023/11/24 12:04:47;;;;;;;7.85;4.60;;;;;;;24.80;99.59;100402.16;143705;630;47004;-72
2023/11/24 12:07:15;;;;;;;7.00;4.57;;;;;;;24.76;99.63;100392.87;143707;608;47006;-71
2023/11/24 12:09:41;;;;;;;7.55;4.30;;;;;;;24.66;100.00;100378.22;143706;589;47002;-72
2023/11/24 12:12:10;;;;;;;7.82;4.40;;;;;;;24.53;100.00;100379.00;143705;576;47008;-71
2023/11/24 12:14:41;;;;;;;5.78;4.28;;;;;;;24.52;100.00;100391.91;143706;592;47004;-72
2023/11/24 12:17:07;;;;;;;8.18;4.70;;;;;;;24.54;100.00;100380.59;143704;617;47006;-72
2023/11/24 12:19:34;;;;;;;7.70;4.85;;;;;;;24.41;100.00;100375.91;143708;592;47011;-72
2023/11/24 12:22:03;;;;;;;6.18;4.22;;;;;;;24.37;100.00;100381.19;143704;597;47009;-71
2023/11/24 12:24:31;;;;;;;7.62;4.80;;;;;;;24.20;100.00;100379.81;143707;598;47004;-71
2023/11/24 12:26:58;;;;;;;8.07;4.43;;;;;;;24.32;100.00;100384.84;143706;590;47004;-71
2023/11/24 12:29:27;;;;;;;6.60;4.62;;;;;;;24.31;100.00;100388.69;143708;594;47002;-71
2023/11/24 12:31:54;;;;;;;6.12;4.45;;;;;;;24.17;100.00;100376.84;143704;597;47011;-71
2023/11/24 12:34:27;;;;;;;8.52;5.05;;;;;;;23.86;100.00;100389.06;143707;596;47004;-72
2023/11/24 12:36:54;;;;;;;6.33;4.60;;;;;;;23.75;100.00;100387.56;143705;656;47006;-72
2023/11/24 12:39:30;;;;;;;7.80;5.25;;;;;;;23.79;100.00;100385.06;143708;649;47002;-71
2023/11/24 12:41:57;;;;;;;7.57;5.47;;;;;;;23.90;100.00;100381.06;143704;642;47008;-72
2023/11/24 12:44:29;;;;;;;10.43;4.85;;;;;;;23.84;100.00;100372.09;143706;575;47004;-72
2023/11/24 12:47:14;;;;;;;5.25;4.30;;;;;;;23.40;100.00;100365.84;143704;601;47006;-72
2023/11/24 12:50:12;;;;;;;6.82;5.05;;;;;;;23.20;100.00;100366.06;143707;575;47004;-72
2023/11/24 12:52:41;;;;;;;9.98;5.55;;;;;;;23.05;100.00;100378.00;143704;580;47012;-72
2023/11/24 12:55:08;;;;;;;6.03;4.90;;;;;;;22.91;100.00;100402.53;143706;567;47006;-72
2023/11/24 12:57:36;;;;;;;9.05;5.22;;;;;;;23.03;100.00;100427.59;143705;567;47002;-68
2023/11/24 13:00:09;;;;;;;7.53;5.28;;;;;;;23.05;100.00;100441.81;143706;567;47004;-68
2023/11/24 13:02:39;;;;;;;6.40;4.90;;;;;;;23.10;100.00;100435.47;143707;717;47006;-68
2023/11/24 13:05:10;;;;;;;6.37;5.03;;;;;;;23.08;100.00;100427.56;143707;566;47004;-66
2023/11/24 13:07:37;;;;;;;6.12;4.60;;;;;;;23.08;100.00;100438.50;143703;576;47006;-66
2023/11/24 13:10:06;;;;;;;6.32;5.05;;;;;;;23.08;100.00;100433.03;143708;741;47002;-67
2023/11/24 13:12:36;;;;;;;8.95;4.40;;;;;;;23.10;100.00;100441.78;143703;588;47010;-66
2023/11/24 13:15:03;;;;;;;5.57;4.68;;;;;;;23.08;100.00;100449.47;143706;603;47012;-66
2023/11/24 13:17:29;;;;;;;10.25;5.85;;;;;;;23.00;100.00;100429.00;143708;586;47006;-66